»·PEaware :: QXE2018 KSEA-KIDA

QXE2018 :: KSEA-KIDA

FLIGHT INFORMATION

Flight Status: Arrived
Operator:
Horizon Air
More flights by this operator :: More flights under this callsign
Pilot: Matthew M. (8235)
Aircraft: DEHAVILLAND DASH 8 400
(DH8D)
More flights by this aircraft type
Origin: KSEA Seattle-Tacoma Intl
United States
Destination: KIDA Idaho Falls Regl
United States
More flights between these airports :: More routes between these airports
Route: SEA8 SEA NORMY J90 MWH DBS
File this flight plan on PilotEdge
Remarks:
Altitude:
(Current/Filed)
25,000ft
Speed:
(Current/Filed)
330kts
Departed: 25-Jul-22 01:01 PM
Arrived: 25-Jul-22 02:43 PM
Distance/Time
Traveled:
491nm/1:42
Distance/Time
To Go:
Arrived

Flight Plot

Page will automatically refresh every two minutes.

Flight plan parsing failed; only flown route is shown


Map Options




Map Legend


Flown Route
Filed Route
Departure Airport
Arrival Airport
Navaid (VOR, NDB)
Fix

Horizontal Profiles

Position Reports

Time Latitude Longitude Heading Altitude Ground
Speed
25-Jul-22 12:38 47.446000 -122.304674 89 337ft 0kts
25-Jul-22 12:39 47.446000 -122.304674 89 337ft 0kts
25-Jul-22 12:40 47.446000 -122.304674 89 337ft 0kts
25-Jul-22 12:41 47.446000 -122.304675 89 337ft 0kts
25-Jul-22 12:42 47.446000 -122.304675 89 337ft 0kts
25-Jul-22 12:43 47.446000 -122.304675 89 337ft 0kts
25-Jul-22 12:44 47.446000 -122.304675 89 337ft 0kts
25-Jul-22 12:45 47.446000 -122.304675 89 337ft 0kts
25-Jul-22 12:46 47.446000 -122.304675 89 337ft 0kts
25-Jul-22 12:47 47.446000 -122.304675 89 337ft 0kts
25-Jul-22 12:48 47.446000 -122.304675 89 337ft 0kts
25-Jul-22 12:49 47.446000 -122.304675 89 337ft 0kts
25-Jul-22 12:50 47.446000 -122.304675 89 337ft 0kts
25-Jul-22 12:51 47.446000 -122.304675 89 337ft 0kts
25-Jul-22 12:52 47.446000 -122.304675 89 337ft 0kts
25-Jul-22 12:53 47.446000 -122.304675 89 337ft 0kts
25-Jul-22 12:54 47.446000 -122.304675 89 337ft 0kts
25-Jul-22 12:55 47.445999 -122.304746 89 337ft 0kts
25-Jul-22 12:56 47.446046 -122.304833 186 337ft 0kts
25-Jul-22 12:57 47.443602 -122.306555 220 337ft 2kts
25-Jul-22 12:58 47.443597 -122.306561 220 337ft 0kts
25-Jul-22 12:59 47.443827 -122.307916 0 337ft 9kts
25-Jul-22 13:00 47.473028 -122.308241 357 1129ft 143kts
25-Jul-22 13:01 47.514615 -122.311837 357 2890ft 172kts
25-Jul-22 13:02 47.568669 -122.315877 356 4444ft 214kts
25-Jul-22 13:03 47.632417 -122.321067 356 6014ft 243kts
25-Jul-22 13:04 47.682690 -122.272044 91 7506ft 261kts
25-Jul-22 13:05 47.640664 -122.185026 127 9196ft 267kts
25-Jul-22 13:06 47.599969 -122.099800 123 10635ft 274kts
25-Jul-22 13:07 47.556937 -122.004267 123 12025ft 283kts
25-Jul-22 13:08 47.512935 -121.906223 123 13357ft 289kts
25-Jul-22 13:10 47.467895 -121.806153 122 14532ft 295kts
25-Jul-22 13:11 47.429505 -121.700042 91 15571ft 295kts
25-Jul-22 13:12 47.427628 -121.578130 88 16560ft 299kts
25-Jul-22 13:13 47.425905 -121.454015 88 17462ft 304kts
25-Jul-22 13:14 47.423987 -121.328544 89 18156ft 308kts
25-Jul-22 13:15 47.421898 -121.201564 88 18769ft 310kts
25-Jul-22 13:16 47.419646 -121.072922 88 19204ft 314kts
25-Jul-22 13:17 47.417235 -120.943427 88 19470ft 316kts
25-Jul-22 13:18 47.414672 -120.813552 88 19670ft 317kts
25-Jul-22 13:19 47.411942 -120.682998 88 19870ft 317kts
25-Jul-22 13:20 47.409066 -120.552752 88 20069ft 317kts
25-Jul-22 13:21 47.405850 -120.422859 91 20377ft 314kts
25-Jul-22 13:22 47.385736 -120.299778 102 20853ft 306kts
25-Jul-22 13:23 47.364825 -120.180138 101 21331ft 296kts
25-Jul-22 13:24 47.344546 -120.064057 101 21809ft 287kts
25-Jul-22 13:25 47.324881 -119.952092 101 22279ft 277kts
25-Jul-22 13:26 47.305781 -119.844026 101 22654ft 269kts
25-Jul-22 13:27 47.286108 -119.733512 101 22908ft 295kts
25-Jul-22 13:28 47.263878 -119.609490 101 22991ft 331kts
25-Jul-22 13:29 47.239131 -119.472456 102 22987ft 359kts
25-Jul-22 13:30 47.212290 -119.327053 107 22968ft 370kts
25-Jul-22 13:31 47.159066 -119.200588 122 22978ft 359kts
25-Jul-22 13:32 47.104681 -119.079807 122 22980ft 351kts
25-Jul-22 13:33 47.051224 -118.961310 122 22985ft 346kts
25-Jul-22 13:34 46.998438 -118.844774 122 22994ft 343kts
25-Jul-22 13:35 46.945370 -118.728105 122 22999ft 342kts
25-Jul-22 13:36 46.892833 -118.613082 122 22998ft 340kts
25-Jul-22 13:36 46.848876 -118.517202 122 22996ft 339kts
25-Jul-22 13:38 46.787497 -118.383886 122 22990ft 339kts
25-Jul-22 13:39 46.734325 -118.268908 123 22984ft 338kts
25-Jul-22 13:40 46.681581 -118.155329 123 22981ft 338kts
25-Jul-22 13:40 46.637471 -118.060700 123 22983ft 338kts
25-Jul-22 13:41 46.584416 -117.947295 123 23007ft 339kts
25-Jul-22 13:42 46.530940 -117.833431 123 23034ft 340kts
25-Jul-22 13:44 46.468399 -117.700922 123 23037ft 344kts
25-Jul-22 13:45 46.413849 -117.585826 123 23037ft 346kts
25-Jul-22 13:45 46.368225 -117.489928 123 23036ft 348kts
25-Jul-22 13:46 46.313137 -117.374562 123 23037ft 349kts
25-Jul-22 13:47 46.257603 -117.258753 124 23036ft 351kts
25-Jul-22 13:48 46.202036 -117.143347 124 23041ft 351kts
25-Jul-22 13:50 46.136697 -117.008250 124 23066ft 351kts
25-Jul-22 13:50 46.090174 -116.912441 124 23093ft 350kts
25-Jul-22 13:51 46.034630 -116.798477 124 23109ft 347kts
25-Jul-22 13:52 45.979145 -116.685106 124 23110ft 345kts
25-Jul-22 13:53 45.923896 -116.572668 124 23109ft 344kts
25-Jul-22 13:54 45.868863 -116.461111 124 23109ft 343kts
25-Jul-22 13:55 45.813700 -116.349734 125 23109ft 342kts
25-Jul-22 13:56 45.758618 -116.238956 125 23109ft 340kts
25-Jul-22 13:57 45.703708 -116.128962 125 23103ft 340kts
25-Jul-22 13:58 45.648537 -116.018865 125 23054ft 341kts
25-Jul-22 13:59 45.593437 -115.909332 125 22977ft 340kts
25-Jul-22 14:00 45.538242 -115.800040 125 23019ft 338kts
25-Jul-22 14:01 45.483124 -115.691342 125 23072ft 339kts
25-Jul-22 14:02 45.427369 -115.581808 125 23118ft 344kts
25-Jul-22 14:03 45.370558 -115.470628 125 23120ft 350kts
25-Jul-22 14:04 45.312726 -115.357883 125 23120ft 353kts
25-Jul-22 14:05 45.254487 -115.244778 126 23119ft 355kts
25-Jul-22 14:06 45.196420 -115.131347 121 23106ft 356kts
25-Jul-22 14:07 45.152982 -115.004989 116 23099ft 357kts
25-Jul-22 14:08 45.107987 -114.879486 116 23093ft 359kts
25-Jul-22 14:09 45.062401 -114.754210 116 23104ft 357kts
25-Jul-22 14:10 45.017237 -114.630766 116 23116ft 351kts
25-Jul-22 14:11 44.972792 -114.509847 116 23129ft 343kts
25-Jul-22 14:12 44.929090 -114.391487 116 23135ft 336kts
25-Jul-22 14:13 44.886078 -114.275505 117 23135ft 330kts
25-Jul-22 14:14 44.843608 -114.161454 117 23131ft 326kts
25-Jul-22 14:15 44.801611 -114.049160 117 23105ft 323kts
25-Jul-22 14:16 44.759673 -113.937463 117 23100ft 321kts
25-Jul-22 14:17 44.717999 -113.826922 117 23100ft 319kts
25-Jul-22 14:18 44.676392 -113.716999 117 23100ft 318kts
25-Jul-22 14:19 44.634680 -113.607232 117 23100ft 318kts
25-Jul-22 14:20 44.592924 -113.497779 117 23100ft 317kts
25-Jul-22 14:21 44.551194 -113.388830 118 23100ft 317kts
25-Jul-22 14:22 44.509337 -113.279968 118 23100ft 317kts
25-Jul-22 14:23 44.467452 -113.171462 118 23101ft 316kts
25-Jul-22 14:24 44.425497 -113.063196 118 23110ft 315kts
25-Jul-22 14:25 44.383517 -112.955280 118 23127ft 315kts
25-Jul-22 14:26 44.341530 -112.847772 118 23142ft 316kts
25-Jul-22 14:27 44.299140 -112.739664 118 23147ft 318kts
25-Jul-22 14:28 44.256557 -112.631449 118 23146ft 320kts
25-Jul-22 14:29 44.211802 -112.518276 119 21947ft 347kts
25-Jul-22 14:30 44.166856 -112.404606 118 20233ft 323kts
25-Jul-22 14:31 44.124757 -112.298797 119 18643ft 300kts
25-Jul-22 14:32 44.080436 -112.204171 147 17143ft 292kts
25-Jul-22 14:33 44.009105 -112.147047 153 15637ft 301kts
25-Jul-22 14:34 43.934827 -112.089339 152 14081ft 314kts
25-Jul-22 14:35 43.858535 -112.030176 152 12475ft 312kts
25-Jul-22 14:36 43.785939 -111.973990 152 10959ft 287kts
25-Jul-22 14:37 43.718930 -111.922370 152 9454ft 261kts
25-Jul-22 14:38 43.657356 -111.922719 213 8077ft 219kts
25-Jul-22 14:39 43.608332 -111.971750 218 6918ft 222kts
25-Jul-22 14:40 43.562206 -112.021001 219 5801ft 187kts
25-Jul-22 14:41 43.524764 -112.061332 219 4823ft 156kts
25-Jul-22 14:42 43.509294 -112.076427 123 4748ft 9kts
25-Jul-22 14:43 43.510666 -112.074508 38 4748ft 8kts
25-Jul-22 14:44 43.513441 -112.071519 37 4741ft 16kts
25-Jul-22 14:45 43.515354 -112.069273 83 4738ft 8kts

Navigation Log

Ident Type
Flight plan parsing failed, navigation log unavailable